createdAt,value
2022-12-31T00:02:09.506Z,10.57
2022-12-31T00:04:58.553Z,13.10
2022-12-31T00:07:55.285Z,10.60
2022-12-31T00:10:46.758Z,10.35
2022-12-31T00:13:40.958Z,11.25
2022-12-31T00:16:41.408Z,10.20
2022-12-31T00:19:56.436Z,10.77
2022-12-31T00:22:50.687Z,11.68
2022-12-31T00:25:48.216Z,11.13
2022-12-31T00:28:36.801Z,11.10
2022-12-31T00:31:31.811Z,11.25
2022-12-31T00:34:18.625Z,10.73
2022-12-31T00:37:05.527Z,11.15
2022-12-31T00:40:00.324Z,10.98
2022-12-31T00:42:53.125Z,12.15
2022-12-31T00:45:42.985Z,12.32
2022-12-31T00:48:34.424Z,10.32
2022-12-31T00:51:23.551Z,10.60
2022-12-31T00:54:13.212Z,10.88
2022-12-31T00:57:03.190Z,11.77
2022-12-31T00:59:52.529Z,11.95
2022-12-31T01:03:02.093Z,10.82
2022-12-31T01:05:50.351Z,11.52
2022-12-31T01:08:37.662Z,13.23
2022-12-31T01:11:31.158Z,11.07
2022-12-31T01:14:19.535Z,12.20
2022-12-31T01:17:06.432Z,12.27
2022-12-31T01:19:53.523Z,12.30
2022-12-31T01:22:40.333Z,11.38
2022-12-31T01:25:27.174Z,12.07
2022-12-31T01:28:14.012Z,11.90
2022-12-31T01:31:12.055Z,11.27
2022-12-31T01:34:00.377Z,12.88
2022-12-31T01:36:47.279Z,12.60
2022-12-31T01:39:34.233Z,11.65
2022-12-31T01:42:22.551Z,11.90
2022-12-31T01:45:12.580Z,11.00
2022-12-31T01:47:59.733Z,13.07
2022-12-31T01:50:46.870Z,12.05
2022-12-31T01:53:40.721Z,11.88
2022-12-31T01:56:30.489Z,10.90
2022-12-31T01:59:18.613Z,12.85
2022-12-31T02:02:08.637Z,11.48
2022-12-31T02:04:57.596Z,11.70
2022-12-31T02:07:44.724Z,11.38
2022-12-31T02:10:37.779Z,11.27
2022-12-31T02:13:24.680Z,11.93
2022-12-31T02:16:28.590Z,11.80
2022-12-31T02:19:34.733Z,12.18
2022-12-31T02:22:39.966Z,11.60
2022-12-31T02:25:35.083Z,11.65
2022-12-31T02:28:50.081Z,11.15
2022-12-31T02:31:48.951Z,12.43
2022-12-31T02:34:41.135Z,10.43
2022-12-31T02:37:29.069Z,11.70
2022-12-31T02:40:19.408Z,10.40
2022-12-31T02:43:06.411Z,10.80
2022-12-31T02:46:27.269Z,10.20
2022-12-31T02:49:21.533Z,10.57
2022-12-31T02:52:31.567Z,11.20
2022-12-31T02:55:30.716Z,11.00
2022-12-31T03:02:00.334Z,10.80
2022-12-31T03:04:55.499Z,10.17
2022-12-31T03:07:43.173Z,10.82
2022-12-31T03:10:29.986Z,10.75
2022-12-31T03:13:16.843Z,10.02
2022-12-31T03:16:06.795Z,11.07
2022-12-31T03:19:12.330Z,10.35
2022-12-31T03:22:17.737Z,11.23
2022-12-31T03:25:30.125Z,10.50
2022-12-31T03:28:18.783Z,10.70
2022-12-31T03:31:06.069Z,11.35
2022-12-31T03:33:53.559Z,9.52
2022-12-31T03:36:40.383Z,10.80
2022-12-31T03:39:29.323Z,10.70
2022-12-31T03:42:16.099Z,10.18
2022-12-31T03:45:03.334Z,10.65
2022-12-31T03:47:50.934Z,11.27
2022-12-31T03:50:37.813Z,10.43
2022-12-31T03:53:24.685Z,8.98
2022-12-31T03:56:11.545Z,11.48
2022-12-31T03:58:58.374Z,11.85
2022-12-31T04:01:50.865Z,9.85
2022-12-31T04:04:37.782Z,9.85
2022-12-31T04:07:24.639Z,9.95
2022-12-31T04:10:13.610Z,9.80
2022-12-31T04:13:02.449Z,10.95
2022-12-31T04:15:51.003Z,11.30
2022-12-31T04:18:37.913Z,9.57
2022-12-31T04:21:26.823Z,10.68
2022-12-31T04:24:15.644Z,10.77
2022-12-31T04:27:10.439Z,9.45
2022-12-31T04:29:57.318Z,9.15
2022-12-31T04:32:47.142Z,10.38
2022-12-31T04:35:34.035Z,9.52
2022-12-31T04:38:20.833Z,8.82
2022-12-31T04:41:22.885Z,9.25
2022-12-31T04:44:21.731Z,8.55
2022-12-31T04:47:16.291Z,8.27
2022-12-31T04:50:13.659Z,8.65
2022-12-31T04:53:00.513Z,8.65
2022-12-31T04:55:47.409Z,8.15
2022-12-31T04:58:34.471Z,8.60
2022-12-31T05:01:22.016Z,8.05
2022-12-31T05:04:14.663Z,8.10
2022-12-31T05:07:04.073Z,7.85
2022-12-31T05:09:51.029Z,8.43
2022-12-31T05:12:37.895Z,7.55
2022-12-31T05:15:29.407Z,8.20
2022-12-31T05:18:16.317Z,7.80
2022-12-31T05:21:03.543Z,7.82
2022-12-31T05:23:52.674Z,7.45
2022-12-31T05:26:39.477Z,8.13
2022-12-31T05:29:27.551Z,6.35
2022-12-31T05:32:17.339Z,6.63
2022-12-31T05:35:18.449Z,6.60
2022-12-31T05:38:05.441Z,6.18
2022-12-31T05:41:03.651Z,6.25
2022-12-31T05:43:50.505Z,6.40
2022-12-31T05:46:37.341Z,6.05
2022-12-31T05:49:24.182Z,5.85
2022-12-31T05:52:14.328Z,5.82
2022-12-31T05:55:01.182Z,6.00
2022-12-31T05:57:48.047Z,5.35
2022-12-31T06:00:36.018Z,5.70
2022-12-31T06:03:22.917Z,5.93
2022-12-31T06:06:19.758Z,5.18
2022-12-31T06:09:06.573Z,3.60
2022-12-31T06:11:53.479Z,3.67
2022-12-31T06:14:45.834Z,4.53
2022-12-31T06:17:32.888Z,4.20
2022-12-31T06:20:21.231Z,4.40
2022-12-31T06:23:10.407Z,4.70
2022-12-31T06:28:45.604Z,3.80
2022-12-31T06:31:41.313Z,3.92
2022-12-31T06:34:28.126Z,3.25
2022-12-31T06:37:17.301Z,3.28
2022-12-31T06:42:59.869Z,2.67
2022-12-31T06:45:47.073Z,3.88
2022-12-31T06:48:34.175Z,3.70
2022-12-31T06:51:21.692Z,3.15
2022-12-31T06:54:08.542Z,2.80
2022-12-31T06:56:55.513Z,3.70
2022-12-31T06:59:43.141Z,3.13
2022-12-31T07:02:41.630Z,2.55
2022-12-31T07:05:34.592Z,2.95
2022-12-31T07:08:47.097Z,3.25
2022-12-31T07:11:39.804Z,2.47
2022-12-31T07:14:50.028Z,3.85
2022-12-31T07:17:52.094Z,4.20
2022-12-31T07:20:46.333Z,3.13
2022-12-31T07:23:42.686Z,3.30
2022-12-31T07:26:42.936Z,3.45
2022-12-31T07:29:51.738Z,4.45
2022-12-31T07:32:57.496Z,2.83
2022-12-31T07:36:14.730Z,2.65
2022-12-31T07:39:18.514Z,3.55
2022-12-31T07:42:15.531Z,3.80
2022-12-31T07:45:20.926Z,3.60
2022-12-31T07:48:40.093Z,4.07
2022-12-31T07:51:32.057Z,4.57
2022-12-31T07:54:39.368Z,3.83
2022-12-31T07:57:34.632Z,4.38
2022-12-31T08:00:27.866Z,4.43
2022-12-31T08:03:52.453Z,4.53
2022-12-31T08:07:06.535Z,5.88
2022-12-31T08:10:19.435Z,4.80
2022-12-31T08:16:45.676Z,5.13
2022-12-31T08:19:57.468Z,5.60
2022-12-31T08:23:11.396Z,6.00
2022-12-31T08:26:31.700Z,5.13
2022-12-31T08:29:39.502Z,6.47
2022-12-31T08:33:08.182Z,4.85
2022-12-31T08:36:19.529Z,5.55
2022-12-31T08:39:16.372Z,5.65
2022-12-31T08:42:27.839Z,5.22
2022-12-31T08:45:41.963Z,4.97
2022-12-31T08:48:43.485Z,5.93
2022-12-31T08:51:33.949Z,5.82
2022-12-31T08:57:56.078Z,5.45
2022-12-31T09:00:52.382Z,6.78
2022-12-31T09:03:45.871Z,5.18
2022-12-31T09:06:43.326Z,6.72
2022-12-31T09:09:59.897Z,5.68
2022-12-31T09:13:01.689Z,5.93
2022-12-31T09:15:52.539Z,6.15
2022-12-31T09:19:02.993Z,5.65
2022-12-31T09:21:56.540Z,5.47
2022-12-31T09:28:57.549Z,5.93
2022-12-31T09:32:05.473Z,5.88
2022-12-31T09:35:22.319Z,6.75
2022-12-31T09:38:36.404Z,5.85
2022-12-31T09:41:58.473Z,5.63
2022-12-31T09:45:06.927Z,5.82
2022-12-31T09:48:08.938Z,6.05
2022-12-31T09:51:31.669Z,5.60
2022-12-31T09:54:30.617Z,5.38
2022-12-31T09:57:31.161Z,5.55
2022-12-31T10:00:31.546Z,5.35
2022-12-31T10:03:56.352Z,4.50
2022-12-31T10:07:06.886Z,5.53
2022-12-31T10:10:15.799Z,3.78
2022-12-31T10:13:55.355Z,4.20
2022-12-31T10:17:03.404Z,3.67
2022-12-31T10:20:26.724Z,3.67
2022-12-31T10:23:49.328Z,4.13
2022-12-31T10:27:01.087Z,4.45
2022-12-31T10:30:23.044Z,4.45
2022-12-31T10:33:33.082Z,4.13
2022-12-31T10:37:11.708Z,4.15
2022-12-31T10:40:23.158Z,3.75
2022-12-31T10:43:24.941Z,3.33
2022-12-31T10:46:39.470Z,3.42
2022-12-31T10:49:32.697Z,3.00
2022-12-31T10:52:29.842Z,2.38
2022-12-31T10:59:23.533Z,3.25
2022-12-31T11:03:29.706Z,2.30
2022-12-31T11:07:01.807Z,3.13
2022-12-31T11:10:36.721Z,3.65
2022-12-31T11:14:02.058Z,1.55
2022-12-31T11:16:53.784Z,2.70
2022-12-31T11:20:23.882Z,2.40
2022-12-31T11:24:26.348Z,3.13
2022-12-31T11:27:57.642Z,1.60
2022-12-31T11:31:36.478Z,2.38
2022-12-31T11:37:41.536Z,2.13
2022-12-31T11:40:55.216Z,2.88
2022-12-31T11:44:29.879Z,2.42
2022-12-31T11:48:28.487Z,2.35
2022-12-31T11:52:11.002Z,1.80
2022-12-31T11:55:15.893Z,3.33
2022-12-31T11:58:31.225Z,1.25
2022-12-31T12:01:50.286Z,2.15
2022-12-31T12:07:24.479Z,3.83
2022-12-31T12:10:59.459Z,2.40
2022-12-31T12:13:53.321Z,1.77
2022-12-31T12:16:44.511Z,1.88
2022-12-31T12:19:47.132Z,1.70
2022-12-31T12:22:49.528Z,2.22
2022-12-31T12:25:49.650Z,1.50
2022-12-31T12:28:49.417Z,1.75
2022-12-31T12:31:42.480Z,2.58
2022-12-31T12:34:45.910Z,1.58
2022-12-31T12:37:59.197Z,1.50
2022-12-31T12:41:10.793Z,1.73
2022-12-31T12:44:11.774Z,1.25
2022-12-31T12:47:01.930Z,1.58
2022-12-31T12:50:03.040Z,1.90
2022-12-31T12:52:59.156Z,2.60
2022-12-31T12:56:49.150Z,2.35
2022-12-31T13:03:29.081Z,2.97
2022-12-31T13:15:10.193Z,1.83
2022-12-31T13:22:13.901Z,2.15
2022-12-31T13:25:27.746Z,1.77
2022-12-31T13:28:41.786Z,2.15
2022-12-31T13:35:40.686Z,2.63
2022-12-31T13:42:13.568Z,1.80
2022-12-31T13:49:43.243Z,1.23
2022-12-31T13:57:10.975Z,2.05
2022-12-31T14:01:03.887Z,2.00
2022-12-31T14:04:37.960Z,2.45
2022-12-31T14:08:47.799Z,2.58
2022-12-31T14:26:35.561Z,2.15
2022-12-31T14:29:45.992Z,1.60
2022-12-31T14:33:27.278Z,2.22
2022-12-31T14:36:52.561Z,2.35
2022-12-31T14:44:28.042Z,1.95
2022-12-31T14:58:09.738Z,2.85
2022-12-31T15:01:44.814Z,1.85
2022-12-31T15:05:32.256Z,2.03
2022-12-31T15:13:17.080Z,3.35
2022-12-31T15:37:13.289Z,3.65
2022-12-31T15:41:11.187Z,4.93
2022-12-31T15:48:40.931Z,4.63
2022-12-31T15:52:11.348Z,4.68
2022-12-31T16:06:55.899Z,6.15
2022-12-31T16:10:04.334Z,5.53
2022-12-31T16:13:45.256Z,6.50
2022-12-31T16:20:02.951Z,6.53
2022-12-31T16:23:46.170Z,7.03
2022-12-31T16:26:50.572Z,8.00
2022-12-31T16:29:38.344Z,6.55
2022-12-31T16:32:47.049Z,6.40
2022-12-31T16:35:46.435Z,6.25
2022-12-31T16:38:36.979Z,6.43
2022-12-31T16:41:54.819Z,7.45
2022-12-31T16:44:49.499Z,7.18
2022-12-31T16:47:43.180Z,6.38
2022-12-31T16:53:42.579Z,7.78
2022-12-31T16:56:39.676Z,6.55
2022-12-31T16:59:47.973Z,7.35
2022-12-31T17:03:06.817Z,7.78
2022-12-31T17:09:16.684Z,7.78
2022-12-31T17:12:19.292Z,7.15
2022-12-31T17:15:09.247Z,7.45
2022-12-31T17:18:01.185Z,7.38
2022-12-31T17:20:59.973Z,8.45
2022-12-31T17:24:11.710Z,7.82
2022-12-31T17:27:42.188Z,7.75
2022-12-31T17:30:46.878Z,6.95
2022-12-31T17:34:00.976Z,8.07
2022-12-31T17:37:06.668Z,8.15
2022-12-31T17:40:50.442Z,7.70
2022-12-31T17:44:13.109Z,8.20
2022-12-31T17:54:56.046Z,7.70
2022-12-31T17:59:34.383Z,8.15
2022-12-31T18:01:50.878Z,8.80
2022-12-31T18:04:52.249Z,8.80
2022-12-31T18:13:03.467Z,9.20
2022-12-31T18:24:47.209Z,8.85
2022-12-31T18:28:25.766Z,9.63
2022-12-31T18:36:07.614Z,8.35
2022-12-31T18:40:25.514Z,10.43
2022-12-31T18:43:43.061Z,9.52
2022-12-31T18:54:14.627Z,9.35
2022-12-31T19:01:38.108Z,9.25
2022-12-31T19:05:07.162Z,10.93
2022-12-31T19:15:20.319Z,8.88
2022-12-31T19:30:12.544Z,8.85
2022-12-31T19:32:05.447Z,9.90
2022-12-31T19:39:04.635Z,9.50
2022-12-31T19:53:47.294Z,9.60
2022-12-31T19:57:04.112Z,8.55
2022-12-31T20:00:34.990Z,9.10
2022-12-31T20:03:40.616Z,10.48
2022-12-31T20:18:42.751Z,9.93
2022-12-31T20:29:15.521Z,10.43
2022-12-31T20:36:19.768Z,12.30
2022-12-31T20:56:18.680Z,10.85
2022-12-31T21:04:18.708Z,10.95
2022-12-31T21:07:44.160Z,10.85
2022-12-31T21:11:16.910Z,10.43
2022-12-31T21:14:23.353Z,11.50
2022-12-31T21:17:47.515Z,13.30
2022-12-31T22:05:53.277Z,13.77
2022-12-31T22:30:28.531Z,15.38
2022-12-31T22:36:53.729Z,14.13
2022-12-31T22:46:57.320Z,15.05
2022-12-31T22:49:55.113Z,14.43
2022-12-31T22:56:24.431Z,14.07
2022-12-31T22:59:30.702Z,15.88
2022-12-31T23:02:41.901Z,14.32
2022-12-31T23:05:30.867Z,14.23
2022-12-31T23:08:23.089Z,13.90
2022-12-31T23:11:15.410Z,14.55
2022-12-31T23:14:52.290Z,16.25
2022-12-31T23:18:14.217Z,18.13
2022-12-31T23:22:22.507Z,22.85
2022-12-31T23:25:22.560Z,20.23
2022-12-31T23:28:58.934Z,19.08
2022-12-31T23:36:08.136Z,23.65
2022-12-31T23:38:59.032Z,23.17
2022-12-31T23:45:54.756Z,24.70
2022-12-31T23:48:51.324Z,24.67
2022-12-31T23:59:54.481Z,24.98
